TimeMST,TemperatureF,Dew PointF,Humidity,Sea Level PressureIn,VisibilityMPH,Wind Direction,Wind SpeedMPH,Gust SpeedMPH,PrecipitationIn,Events,Conditions,WindDirDegrees,DateUTC
12:15 AM,71.6,46.4,41,29.85,10.0,Calm,Calm,-,N/A,,Clear,0,2012-10-24 07:15:00
12:35 AM,68.0,44.6,43,29.86,10.0,Calm,Calm,-,N/A,,Clear,0,2012-10-24 07:35:00
12:55 AM,64.4,46.4,52,29.86,10.0,Calm,Calm,-,N/A,,Clear,0,2012-10-24 07:55:00
1:15 AM,64.4,46.4,52,29.87,10.0,Calm,Calm,-,N/A,,Clear,0,2012-10-24 08:15:00
1:35 AM,64.4,46.4,52,29.87,10.0,Calm,Calm,-,N/A,,Clear,0,2012-10-24 08:35:00
1:55 AM,64.4,46.4,52,29.86,10.0,Calm,Calm,-,N/A,,Clear,0,2012-10-24 08:55:00
2:15 AM,64.4,46.4,52,29.86,10.0,Calm,Calm,-,N/A,,Clear,0,2012-10-24 09:15:00
2:35 AM,62.6,46.4,55,29.86,10.0,Calm,Calm,-,N/A,,Clear,0,2012-10-24 09:35:00
2:55 AM,62.6,46.4,55,29.87,10.0,Calm,Calm,-,N/A,,Clear,0,2012-10-24 09:55:00
3:15 AM,62.6,46.4,55,29.86,10.0,Calm,Calm,-,N/A,,Clear,0,2012-10-24 10:15:00
3:35 AM,62.6,44.6,52,29.86,10.0,Calm,Calm,-,N/A,,Clear,0,2012-10-24 10:35:00
3:55 AM,62.6,42.8,48,29.86,10.0,Calm,Calm,-,N/A,,Clear,0,2012-10-24 10:55:00
4:15 AM,60.8,42.8,52,29.87,10.0,Calm,Calm,-,N/A,,Clear,0,2012-10-24 11:15:00
4:35 AM,62.6,44.6,52,29.87,10.0,Calm,Calm,-,N/A,,Clear,0,2012-10-24 11:35:00
4:55 AM,60.8,42.8,52,29.87,10.0,Calm,Calm,-,N/A,,Clear,0,2012-10-24 11:55:00
5:15 AM,60.8,41.0,48,29.87,10.0,Calm,Calm,-,N/A,,Clear,0,2012-10-24 12:15:00
6:47 AM,57.2,44.6,63,29.89,45.0,SE,5.8,-,N/A,,Partly Cloudy,130,2012-10-24 13:47:00
7:47 AM,60.8,44.6,55,29.90,45.0,SE,6.9,-,N/A,,Partly Cloudy,130,2012-10-24 14:47:00
8:47 AM,69.8,46.4,43,29.93,45.0,Calm,Calm,-,N/A,,Partly Cloudy,0,2012-10-24 15:47:00
9:47 AM,73.4,41.0,31,29.93,45.0,Calm,Calm,-,N/A,,Partly Cloudy,0,2012-10-24 16:47:00
10:51 AM,78.8,39.2,24,29.94,45.0,Calm,Calm,-,N/A,,Partly Cloudy,0,2012-10-24 17:51:00
11:49 AM,78.8,39.2,24,29.93,35.0,Calm,Calm,-,N/A,,Clear,0,2012-10-24 18:49:00
12:50 PM,78.8,39.2,24,29.90,35.0,West,8.1,-,N/A,,Clear,280,2012-10-24 19:50:00
1:47 PM,80.6,33.8,18,29.89,35.0,WSW,5.8,-,N/A,,Clear,250,2012-10-24 20:47:00
2:47 PM,80.6,32.0,17,29.88,35.0,WNW,6.9,-,N/A,,Clear,300,2012-10-24 21:47:00
3:57 PM,80.6,32.0,17,29.88,35.0,West,9.2,-,N/A,,Clear,280,2012-10-24 22:57:00
4:48 PM,80.6,28.4,15,29.88,35.0,WSW,8.1,-,N/A,,Clear,250,2012-10-24 23:48:00
5:47 PM,78.8,21.2,12,29.88,35.0,West,5.8,-,N/A,,Clear,260,2012-10-25 00:47:00
6:47 PM,73.4,24.8,16,29.91,20.0,WSW,4.6,-,N/A,,Clear,240,2012-10-25 01:47:00
7:47 PM,73.4,26.6,18,29.91,20.0,WSW,8.1,-,N/A,,Clear,250,2012-10-25 02:47:00
7:55 PM,69.8,26.6,20,29.92,10.0,West,4.6,-,N/A,,Clear,270,2012-10-25 02:55:00
8:15 PM,68.0,28.4,23,29.93,10.0,WNW,8.1,-,N/A,,Clear,300,2012-10-25 03:15:00
8:35 PM,68.0,30.2,24,29.93,10.0,NW,5.8,-,N/A,,Clear,310,2012-10-25 03:35:00
8:47 PM,68.0,28.4,23,29.93,20.0,NW,5.8,-,N/A,,Clear,310,2012-10-25 03:47:00
8:55 PM,68.0,30.2,24,29.93,10.0,NW,5.8,-,N/A,,Clear,320,2012-10-25 03:55:00
9:15 PM,66.2,30.2,26,29.95,10.0,NW,3.5,-,N/A,,Clear,320,2012-10-25 04:15:00
9:35 PM,64.4,28.4,26,29.95,10.0,NW,3.5,-,N/A,,Clear,310,2012-10-25 04:35:00
9:55 PM,62.6,28.4,27,29.96,10.0,Calm,Calm,-,N/A,,Clear,0,2012-10-25 04:55:00
10:15 PM,60.8,30.2,31,29.97,10.0,Calm,Calm,-,N/A,,Clear,0,2012-10-25 05:15:00
10:35 PM,60.8,32.0,34,29.97,10.0,East,3.5,-,N/A,,Clear,80,2012-10-25 05:35:00
10:55 PM,60.8,30.2,31,29.97,10.0,Calm,Calm,-,N/A,,Clear,0,2012-10-25 05:55:00
11:15 PM,64.4,28.4,26,29.97,10.0,West,3.5,-,N/A,,Clear,270,2012-10-25 06:15:00
11:35 PM,62.6,28.4,27,29.97,10.0,West,4.6,-,N/A,,Clear,270,2012-10-25 06:35:00
11:55 PM,59.0,30.2,34,29.97,10.0,Calm,Calm,-,N/A,,Clear,0,2012-10-25 06:55:00